sensor_id;sensor_type;location;lat;lon;timestamp;P1;durP1;ratioP1;P2;durP2;ratioP2
2656;SDS011;1338;48.176;11.792;2023-12-29T00:02:01;3.13;;;2.93;;
2656;SDS011;1338;48.176;11.792;2023-12-29T00:04:29;3.03;;;2.60;;
2656;SDS011;1338;48.176;11.792;2023-12-29T00:06:57;3.07;;;2.87;;
2656;SDS011;1338;48.176;11.792;2023-12-29T00:09:29;3.10;;;2.90;;
2656;SDS011;1338;48.176;11.792;2023-12-29T00:12:04;2.50;;;2.30;;
2656;SDS011;1338;48.176;11.792;2023-12-29T00:14:32;4.07;;;2.63;;
2656;SDS011;1338;48.176;11.792;2023-12-29T00:17:02;2.80;;;2.60;;
2656;SDS011;1338;48.176;11.792;2023-12-29T00:19:31;3.20;;;2.40;;
2656;SDS011;1338;48.176;11.792;2023-12-29T00:21:59;2.57;;;2.20;;
2656;SDS011;1338;48.176;11.792;2023-12-29T00:24:29;2.50;;;2.30;;
2656;SDS011;1338;48.176;11.792;2023-12-29T00:26:58;2.70;;;2.30;;
2656;SDS011;1338;48.176;11.792;2023-12-29T00:29:27;2.60;;;2.40;;
2656;SDS011;1338;48.176;11.792;2023-12-29T00:32:01;3.13;;;2.53;;
2656;SDS011;1338;48.176;11.792;2023-12-29T00:34:31;3.00;;;2.70;;
2656;SDS011;1338;48.176;11.792;2023-12-29T00:37:00;2.60;;;2.40;;
2656;SDS011;1338;48.176;11.792;2023-12-29T00:39:28;2.53;;;2.33;;
2656;SDS011;1338;48.176;11.792;2023-12-29T00:42:05;2.80;;;2.60;;
2656;SDS011;1338;48.176;11.792;2023-12-29T00:44:33;2.50;;;2.30;;
2656;SDS011;1338;48.176;11.792;2023-12-29T00:47:04;2.70;;;2.50;;
2656;SDS011;1338;48.176;11.792;2023-12-29T00:49:32;2.67;;;2.47;;
2656;SDS011;1338;48.176;11.792;2023-12-29T00:52:00;2.77;;;2.57;;
2656;SDS011;1338;48.176;11.792;2023-12-29T00:54:29;2.57;;;2.20;;
2656;SDS011;1338;48.176;11.792;2023-12-29T00:56:58;2.80;;;2.60;;
2656;SDS011;1338;48.176;11.792;2023-12-29T00:59:26;2.80;;;2.60;;
2656;SDS011;1338;48.176;11.792;2023-12-29T01:01:54;2.60;;;2.40;;
2656;SDS011;1338;48.176;11.792;2023-12-29T01:04:24;4.40;;;2.77;;
2656;SDS011;1338;48.176;11.792;2023-12-29T01:06:53;2.90;;;2.70;;
2656;SDS011;1338;48.176;11.792;2023-12-29T01:09:21;2.97;;;2.77;;
2656;SDS011;1338;48.176;11.792;2023-12-29T01:11:49;2.70;;;2.50;;
2656;SDS011;1338;48.176;11.792;2023-12-29T01:14:17;2.70;;;2.50;;
2656;SDS011;1338;48.176;11.792;2023-12-29T01:16:46;2.87;;;2.67;;
2656;SDS011;1338;48.176;11.792;2023-12-29T01:19:14;2.60;;;2.40;;
2656;SDS011;1338;48.176;11.792;2023-12-29T01:21:44;2.67;;;2.47;;
2656;SDS011;1338;48.176;11.792;2023-12-29T01:24:12;3.33;;;3.03;;
2656;SDS011;1338;48.176;11.792;2023-12-29T01:26:42;2.73;;;2.37;;
2656;SDS011;1338;48.176;11.792;2023-12-29T01:29:10;3.27;;;2.47;;
2656;SDS011;1338;48.176;11.792;2023-12-29T01:31:38;2.83;;;2.60;;
2656;SDS011;1338;48.176;11.792;2023-12-29T01:34:07;2.83;;;2.60;;
2656;SDS011;1338;48.176;11.792;2023-12-29T01:36:36;2.30;;;2.20;;
2656;SDS011;1338;48.176;11.792;2023-12-29T01:39:05;2.83;;;2.63;;
2656;SDS011;1338;48.176;11.792;2023-12-29T01:41:33;3.03;;;2.73;;
2656;SDS011;1338;48.176;11.792;2023-12-29T01:44:15;2.63;;;2.43;;
2656;SDS011;1338;48.176;11.792;2023-12-29T01:46:46;2.40;;;2.30;;
2656;SDS011;1338;48.176;11.792;2023-12-29T01:49:17;2.80;;;2.60;;
2656;SDS011;1338;48.176;11.792;2023-12-29T01:51:50;2.90;;;2.70;;
2656;SDS011;1338;48.176;11.792;2023-12-29T01:54:21;2.43;;;2.23;;
2656;SDS011;1338;48.176;11.792;2023-12-29T01:56:50;2.73;;;2.47;;
2656;SDS011;1338;48.176;11.792;2023-12-29T01:59:21;2.87;;;2.63;;
2656;SDS011;1338;48.176;11.792;2023-12-29T02:01:53;2.97;;;2.67;;
2656;SDS011;1338;48.176;11.792;2023-12-29T02:04:23;2.90;;;2.70;;
2656;SDS011;1338;48.176;11.792;2023-12-29T02:06:53;2.67;;;2.47;;
2656;SDS011;1338;48.176;11.792;2023-12-29T02:09:25;3.00;;;2.50;;
2656;SDS011;1338;48.176;11.792;2023-12-29T02:11:54;3.00;;;2.80;;
2656;SDS011;1338;48.176;11.792;2023-12-29T02:14:23;2.90;;;2.70;;
2656;SDS011;1338;48.176;11.792;2023-12-29T02:16:53;2.50;;;2.30;;
2656;SDS011;1338;48.176;11.792;2023-12-29T02:19:34;3.90;;;3.00;;
2656;SDS011;1338;48.176;11.792;2023-12-29T02:22:07;3.10;;;2.90;;
2656;SDS011;1338;48.176;11.792;2023-12-29T02:24:37;2.50;;;2.30;;
2656;SDS011;1338;48.176;11.792;2023-12-29T02:27:23;2.80;;;2.60;;
2656;SDS011;1338;48.176;11.792;2023-12-29T02:30:02;2.83;;;2.50;;
2656;SDS011;1338;48.176;11.792;2023-12-29T02:32:37;3.27;;;2.97;;
2656;SDS011;1338;48.176;11.792;2023-12-29T02:35:07;3.73;;;3.27;;
2656;SDS011;1338;48.176;11.792;2023-12-29T02:37:39;4.50;;;2.80;;
2656;SDS011;1338;48.176;11.792;2023-12-29T02:40:09;3.00;;;2.80;;
2656;SDS011;1338;48.176;11.792;2023-12-29T02:42:39;3.10;;;2.87;;
2656;SDS011;1338;48.176;11.792;2023-12-29T02:45:13;3.00;;;2.80;;
2656;SDS011;1338;48.176;11.792;2023-12-29T02:47:41;4.17;;;3.00;;
2656;SDS011;1338;48.176;11.792;2023-12-29T02:50:10;2.67;;;2.47;;
2656;SDS011;1338;48.176;11.792;2023-12-29T02:52:39;2.80;;;2.57;;
2656;SDS011;1338;48.176;11.792;2023-12-29T02:55:07;3.33;;;3.03;;
2656;SDS011;1338;48.176;11.792;2023-12-29T02:57:36;3.37;;;3.17;;
2656;SDS011;1338;48.176;11.792;2023-12-29T03:00:06;2.93;;;2.73;;
2656;SDS011;1338;48.176;11.792;2023-12-29T03:02:35;2.97;;;2.70;;
2656;SDS011;1338;48.176;11.792;2023-12-29T03:05:04;3.63;;;3.33;;
2656;SDS011;1338;48.176;11.792;2023-12-29T03:07:34;2.97;;;2.77;;
2656;SDS011;1338;48.176;11.792;2023-12-29T03:10:03;3.13;;;2.83;;
2656;SDS011;1338;48.176;11.792;2023-12-29T03:12:32;2.50;;;2.30;;
2656;SDS011;1338;48.176;11.792;2023-12-29T03:15:01;2.97;;;2.77;;
2656;SDS011;1338;48.176;11.792;2023-12-29T03:17:31;2.90;;;2.70;;
2656;SDS011;1338;48.176;11.792;2023-12-29T03:19:59;2.90;;;2.70;;
2656;SDS011;1338;48.176;11.792;2023-12-29T03:22:31;3.30;;;3.00;;
2656;SDS011;1338;48.176;11.792;2023-12-29T03:24:59;2.97;;;2.77;;
2656;SDS011;1338;48.176;11.792;2023-12-29T03:27:29;2.67;;;2.47;;
2656;SDS011;1338;48.176;11.792;2023-12-29T03:29:57;4.13;;;2.90;;
2656;SDS011;1338;48.176;11.792;2023-12-29T03:32:25;2.97;;;2.63;;
2656;SDS011;1338;48.176;11.792;2023-12-29T03:34:55;3.07;;;2.87;;
2656;SDS011;1338;48.176;11.792;2023-12-29T03:37:23;3.27;;;3.03;;
2656;SDS011;1338;48.176;11.792;2023-12-29T03:39:51;3.13;;;2.90;;
2656;SDS011;1338;48.176;11.792;2023-12-29T03:42:19;3.20;;;2.83;;
2656;SDS011;1338;48.176;11.792;2023-12-29T03:44:47;3.37;;;2.63;;
2656;SDS011;1338;48.176;11.792;2023-12-29T03:47:15;3.30;;;3.07;;
2656;SDS011;1338;48.176;11.792;2023-12-29T03:49:44;3.03;;;2.83;;
2656;SDS011;1338;48.176;11.792;2023-12-29T03:52:13;3.07;;;2.87;;
2656;SDS011;1338;48.176;11.792;2023-12-29T03:54:42;3.40;;;3.10;;
2656;SDS011;1338;48.176;11.792;2023-12-29T03:57:12;3.30;;;3.00;;
2656;SDS011;1338;48.176;11.792;2023-12-29T03:59:42;3.00;;;2.80;;
2656;SDS011;1338;48.176;11.792;2023-12-29T04:02:10;4.43;;;3.37;;
2656;SDS011;1338;48.176;11.792;2023-12-29T04:04:38;2.90;;;2.70;;
2656;SDS011;1338;48.176;11.792;2023-12-29T04:07:10;3.40;;;3.10;;
2656;SDS011;1338;48.176;11.792;2023-12-29T04:09:40;2.80;;;2.60;;
2656;SDS011;1338;48.176;11.792;2023-12-29T04:12:08;2.83;;;2.53;;
2656;SDS011;1338;48.176;11.792;2023-12-29T04:14:38;3.20;;;3.00;;
2656;SDS011;1338;48.176;11.792;2023-12-29T04:17:06;4.43;;;3.00;;
2656;SDS011;1338;48.176;11.792;2023-12-29T04:19:40;3.10;;;2.60;;
2656;SDS011;1338;48.176;11.792;2023-12-29T04:22:09;3.10;;;2.90;;
2656;SDS011;1338;48.176;11.792;2023-12-29T04:24:39;2.80;;;2.60;;
2656;SDS011;1338;48.176;11.792;2023-12-29T04:27:08;2.70;;;2.50;;
2656;SDS011;1338;48.176;11.792;2023-12-29T04:29:38;3.00;;;2.80;;
2656;SDS011;1338;48.176;11.792;2023-12-29T04:32:09;2.70;;;2.50;;
2656;SDS011;1338;48.176;11.792;2023-12-29T04:34:39;3.17;;;2.87;;
2656;SDS011;1338;48.176;11.792;2023-12-29T04:37:07;2.90;;;2.70;;
2656;SDS011;1338;48.176;11.792;2023-12-29T04:39:36;3.17;;;2.97;;
2656;SDS011;1338;48.176;11.792;2023-12-29T04:42:07;3.30;;;3.00;;
2656;SDS011;1338;48.176;11.792;2023-12-29T04:44:36;2.70;;;2.50;;
2656;SDS011;1338;48.176;11.792;2023-12-29T04:47:04;2.67;;;2.47;;
2656;SDS011;1338;48.176;11.792;2023-12-29T04:49:32;2.70;;;2.50;;
2656;SDS011;1338;48.176;11.792;2023-12-29T04:52:01;3.00;;;2.80;;
2656;SDS011;1338;48.176;11.792;2023-12-29T04:54:29;2.50;;;2.30;;
2656;SDS011;1338;48.176;11.792;2023-12-29T04:56:58;3.13;;;2.67;;
2656;SDS011;1338;48.176;11.792;2023-12-29T04:59:27;3.20;;;2.90;;
2656;SDS011;1338;48.176;11.792;2023-12-29T05:01:55;3.17;;;2.87;;
2656;SDS011;1338;48.176;11.792;2023-12-29T05:04:24;3.57;;;3.27;;
2656;SDS011;1338;48.176;11.792;2023-12-29T05:06:52;2.67;;;2.47;;
2656;SDS011;1338;48.176;11.792;2023-12-29T05:09:20;3.20;;;2.70;;
2656;SDS011;1338;48.176;11.792;2023-12-29T05:11:48;3.27;;;2.97;;
2656;SDS011;1338;48.176;11.792;2023-12-29T05:14:17;3.37;;;3.07;;
2656;SDS011;1338;48.176;11.792;2023-12-29T05:16:48;3.00;;;2.80;;
2656;SDS011;1338;48.176;11.792;2023-12-29T05:19:16;3.30;;;2.60;;
2656;SDS011;1338;48.176;11.792;2023-12-29T05:21:45;3.20;;;2.90;;
2656;SDS011;1338;48.176;11.792;2023-12-29T05:24:16;2.77;;;2.53;;
2656;SDS011;1338;48.176;11.792;2023-12-29T05:26:44;3.73;;;2.93;;
2656;SDS011;1338;48.176;11.792;2023-12-29T05:29:12;3.00;;;2.73;;
2656;SDS011;1338;48.176;11.792;2023-12-29T05:31:40;2.80;;;2.60;;
2656;SDS011;1338;48.176;11.792;2023-12-29T05:34:09;4.90;;;2.73;;
2656;SDS011;1338;48.176;11.792;2023-12-29T05:36:38;2.80;;;2.60;;
2656;SDS011;1338;48.176;11.792;2023-12-29T05:39:09;7.53;;;2.50;;
2656;SDS011;1338;48.176;11.792;2023-12-29T05:41:37;2.70;;;2.50;;
2656;SDS011;1338;48.176;11.792;2023-12-29T05:44:05;2.77;;;2.50;;
2656;SDS011;1338;48.176;11.792;2023-12-29T05:46:34;2.70;;;2.50;;
2656;SDS011;1338;48.176;11.792;2023-12-29T05:49:02;2.83;;;2.63;;
2656;SDS011;1338;48.176;11.792;2023-12-29T05:51:32;3.30;;;3.00;;
2656;SDS011;1338;48.176;11.792;2023-12-29T05:54:00;3.27;;;2.93;;
2656;SDS011;1338;48.176;11.792;2023-12-29T05:56:29;4.00;;;2.80;;
2656;SDS011;1338;48.176;11.792;2023-12-29T05:58:57;2.70;;;2.50;;
2656;SDS011;1338;48.176;11.792;2023-12-29T06:01:26;2.70;;;2.50;;
2656;SDS011;1338;48.176;11.792;2023-12-29T06:03:54;2.93;;;2.63;;
2656;SDS011;1338;48.176;11.792;2023-12-29T06:06:23;2.97;;;2.77;;
2656;SDS011;1338;48.176;11.792;2023-12-29T06:08:52;2.53;;;2.33;;
2656;SDS011;1338;48.176;11.792;2023-12-29T06:11:21;3.13;;;2.80;;
2656;SDS011;1338;48.176;11.792;2023-12-29T06:13:49;2.53;;;2.40;;
2656;SDS011;1338;48.176;11.792;2023-12-29T06:16:18;2.73;;;2.53;;
2656;SDS011;1338;48.176;11.792;2023-12-29T06:18:46;2.80;;;2.60;;
2656;SDS011;1338;48.176;11.792;2023-12-29T06:21:15;2.67;;;2.47;;
2656;SDS011;1338;48.176;11.792;2023-12-29T06:23:44;3.60;;;2.83;;
2656;SDS011;1338;48.176;11.792;2023-12-29T06:26:17;3.13;;;2.60;;
2656;SDS011;1338;48.176;11.792;2023-12-29T06:28:46;2.97;;;2.77;;
2656;SDS011;1338;48.176;11.792;2023-12-29T06:31:14;3.00;;;2.70;;
2656;SDS011;1338;48.176;11.792;2023-12-29T06:33:44;3.17;;;2.70;;
2656;SDS011;1338;48.176;11.792;2023-12-29T06:36:13;2.53;;;2.33;;
2656;SDS011;1338;48.176;11.792;2023-12-29T06:38:41;3.37;;;2.60;;
2656;SDS011;1338;48.176;11.792;2023-12-29T06:41:16;3.47;;;3.00;;
2656;SDS011;1338;48.176;11.792;2023-12-29T06:43:44;2.80;;;2.60;;
2656;SDS011;1338;48.176;11.792;2023-12-29T06:46:13;3.03;;;2.83;;
2656;SDS011;1338;48.176;11.792;2023-12-29T06:48:41;2.57;;;2.37;;
2656;SDS011;1338;48.176;11.792;2023-12-29T06:51:15;3.00;;;2.30;;
2656;SDS011;1338;48.176;11.792;2023-12-29T06:53:44;2.60;;;2.40;;
2656;SDS011;1338;48.176;11.792;2023-12-29T06:56:14;2.80;;;2.60;;
2656;SDS011;1338;48.176;11.792;2023-12-29T06:58:43;2.70;;;2.50;;
2656;SDS011;1338;48.176;11.792;2023-12-29T07:01:12;2.60;;;2.40;;
2656;SDS011;1338;48.176;11.792;2023-12-29T07:03:42;2.57;;;2.37;;
2656;SDS011;1338;48.176;11.792;2023-12-29T07:06:11;2.80;;;2.60;;
2656;SDS011;1338;48.176;11.792;2023-12-29T07:08:40;2.93;;;2.63;;
2656;SDS011;1338;48.176;11.792;2023-12-29T07:11:09;2.77;;;2.57;;
2656;SDS011;1338;48.176;11.792;2023-12-29T07:13:38;2.97;;;2.67;;
2656;SDS011;1338;48.176;11.792;2023-12-29T07:16:08;2.73;;;2.53;;
2656;SDS011;1338;48.176;11.792;2023-12-29T07:18:37;3.17;;;2.60;;
2656;SDS011;1338;48.176;11.792;2023-12-29T07:21:06;2.87;;;2.50;;
2656;SDS011;1338;48.176;11.792;2023-12-29T07:23:34;3.20;;;2.90;;
2656;SDS011;1338;48.176;11.792;2023-12-29T07:26:02;2.57;;;2.37;;
2656;SDS011;1338;48.176;11.792;2023-12-29T07:28:31;2.87;;;2.67;;
2656;SDS011;1338;48.176;11.792;2023-12-29T07:30:59;3.10;;;2.90;;
2656;SDS011;1338;48.176;11.792;2023-12-29T07:33:30;2.90;;;2.70;;
2656;SDS011;1338;48.176;11.792;2023-12-29T07:35:59;3.30;;;2.43;;
2656;SDS011;1338;48.176;11.792;2023-12-29T07:38:28;2.60;;;2.40;;
2656;SDS011;1338;48.176;11.792;2023-12-29T07:40:56;3.10;;;2.80;;
2656;SDS011;1338;48.176;11.792;2023-12-29T07:43:25;2.90;;;2.40;;
2656;SDS011;1338;48.176;11.792;2023-12-29T07:45:53;2.83;;;2.30;;
2656;SDS011;1338;48.176;11.792;2023-12-29T07:48:21;2.90;;;2.50;;
2656;SDS011;1338;48.176;11.792;2023-12-29T07:50:51;2.93;;;2.40;;
2656;SDS011;1338;48.176;11.792;2023-12-29T07:53:19;3.10;;;2.80;;
2656;SDS011;1338;48.176;11.792;2023-12-29T07:55:48;2.70;;;2.50;;
2656;SDS011;1338;48.176;11.792;2023-12-29T07:58:18;2.50;;;2.30;;
2656;SDS011;1338;48.176;11.792;2023-12-29T08:00:46;3.03;;;2.73;;
2656;SDS011;1338;48.176;11.792;2023-12-29T08:03:15;2.50;;;2.30;;
2656;SDS011;1338;48.176;11.792;2023-12-29T08:05:43;4.53;;;3.37;;
2656;SDS011;1338;48.176;11.792;2023-12-29T08:08:14;2.50;;;2.30;;
2656;SDS011;1338;48.176;11.792;2023-12-29T08:10:42;2.80;;;2.60;;
2656;SDS011;1338;48.176;11.792;2023-12-29T08:13:10;3.03;;;2.73;;
2656;SDS011;1338;48.176;11.792;2023-12-29T08:15:38;2.43;;;2.23;;
2656;SDS011;1338;48.176;11.792;2023-12-29T08:18:07;3.37;;;2.60;;
2656;SDS011;1338;48.176;11.792;2023-12-29T08:20:35;2.40;;;2.20;;
2656;SDS011;1338;48.176;11.792;2023-12-29T08:23:04;3.40;;;2.40;;
2656;SDS011;1338;48.176;11.792;2023-12-29T08:25:33;2.83;;;2.63;;
2656;SDS011;1338;48.176;11.792;2023-12-29T08:28:03;2.80;;;2.60;;
2656;SDS011;1338;48.176;11.792;2023-12-29T08:30:33;2.97;;;2.67;;
2656;SDS011;1338;48.176;11.792;2023-12-29T08:33:02;3.03;;;2.73;;
2656;SDS011;1338;48.176;11.792;2023-12-29T08:35:31;3.37;;;2.57;;
2656;SDS011;1338;48.176;11.792;2023-12-29T08:37:59;3.63;;;2.80;;
2656;SDS011;1338;48.176;11.792;2023-12-29T08:40:28;2.30;;;2.00;;
2656;SDS011;1338;48.176;11.792;2023-12-29T08:42:57;4.27;;;2.83;;
2656;SDS011;1338;48.176;11.792;2023-12-29T08:45:28;2.73;;;2.50;;
2656;SDS011;1338;48.176;11.792;2023-12-29T08:47:56;2.67;;;2.47;;
2656;SDS011;1338;48.176;11.792;2023-12-29T08:50:25;2.60;;;2.40;;
2656;SDS011;1338;48.176;11.792;2023-12-29T08:52:53;2.70;;;2.50;;
2656;SDS011;1338;48.176;11.792;2023-12-29T08:55:21;3.43;;;2.60;;
2656;SDS011;1338;48.176;11.792;2023-12-29T08:57:50;3.73;;;2.70;;
2656;SDS011;1338;48.176;11.792;2023-12-29T09:00:19;2.50;;;2.30;;
2656;SDS011;1338;48.176;11.792;2023-12-29T09:02:48;3.13;;;2.93;;
2656;SDS011;1338;48.176;11.792;2023-12-29T09:05:16;2.87;;;2.50;;
2656;SDS011;1338;48.176;11.792;2023-12-29T09:07:44;3.13;;;2.90;;
2656;SDS011;1338;48.176;11.792;2023-12-29T09:10:12;2.90;;;2.67;;
2656;SDS011;1338;48.176;11.792;2023-12-29T09:12:41;3.27;;;2.97;;
2656;SDS011;1338;48.176;11.792;2023-12-29T09:15:10;3.10;;;2.80;;
2656;SDS011;1338;48.176;11.792;2023-12-29T09:17:39;3.13;;;2.83;;
2656;SDS011;1338;48.176;11.792;2023-12-29T09:20:08;5.50;;;2.87;;
2656;SDS011;1338;48.176;11.792;2023-12-29T09:22:37;3.00;;;2.80;;
2656;SDS011;1338;48.176;11.792;2023-12-29T09:25:06;3.23;;;2.90;;
2656;SDS011;1338;48.176;11.792;2023-12-29T09:27:34;3.37;;;2.80;;
2656;SDS011;1338;48.176;11.792;2023-12-29T09:30:03;3.90;;;2.67;;
2656;SDS011;1338;48.176;11.792;2023-12-29T09:32:32;3.50;;;3.20;;
2656;SDS011;1338;48.176;11.792;2023-12-29T09:35:01;3.10;;;2.90;;
2656;SDS011;1338;48.176;11.792;2023-12-29T09:37:30;3.00;;;2.80;;
2656;SDS011;1338;48.176;11.792;2023-12-29T09:39:59;3.30;;;3.00;;
2656;SDS011;1338;48.176;11.792;2023-12-29T09:42:28;3.10;;;2.87;;
2656;SDS011;1338;48.176;11.792;2023-12-29T09:44:57;3.33;;;3.03;;
2656;SDS011;1338;48.176;11.792;2023-12-29T09:47:26;4.43;;;3.30;;
2656;SDS011;1338;48.176;11.792;2023-12-29T09:49:59;5.27;;;3.07;;
2656;SDS011;1338;48.176;11.792;2023-12-29T09:52:30;3.47;;;3.17;;
2656;SDS011;1338;48.176;11.792;2023-12-29T09:55:00;2.87;;;2.67;;
2656;SDS011;1338;48.176;11.792;2023-12-29T09:57:28;3.27;;;2.97;;
2656;SDS011;1338;48.176;11.792;2023-12-29T09:59:58;2.97;;;2.77;;
2656;SDS011;1338;48.176;11.792;2023-12-29T10:02:35;3.13;;;2.83;;
2656;SDS011;1338;48.176;11.792;2023-12-29T10:05:07;3.40;;;3.10;;
2656;SDS011;1338;48.176;11.792;2023-12-29T10:07:37;2.90;;;2.67;;
2656;SDS011;1338;48.176;11.792;2023-12-29T10:10:06;2.87;;;2.67;;
2656;SDS011;1338;48.176;11.792;2023-12-29T10:12:35;2.70;;;2.50;;
2656;SDS011;1338;48.176;11.792;2023-12-29T10:15:06;2.70;;;2.50;;
2656;SDS011;1338;48.176;11.792;2023-12-29T10:17:48;2.80;;;2.60;;
2656;SDS011;1338;48.176;11.792;2023-12-29T10:20:25;3.60;;;2.30;;
2656;SDS011;1338;48.176;11.792;2023-12-29T10:23:06;2.93;;;2.70;;
2656;SDS011;1338;48.176;11.792;2023-12-29T10:25:39;2.93;;;2.63;;
2656;SDS011;1338;48.176;11.792;2023-12-29T10:28:09;3.07;;;2.33;;
2656;SDS011;1338;48.176;11.792;2023-12-29T10:30:38;2.80;;;2.50;;
2656;SDS011;1338;48.176;11.792;2023-12-29T10:33:07;2.60;;;2.40;;
2656;SDS011;1338;48.176;11.792;2023-12-29T10:35:37;2.93;;;2.73;;
2656;SDS011;1338;48.176;11.792;2023-12-29T10:38:09;2.77;;;2.57;;
2656;SDS011;1338;48.176;11.792;2023-12-29T10:40:38;2.70;;;2.50;;
2656;SDS011;1338;48.176;11.792;2023-12-29T10:43:09;3.00;;;2.80;;
2656;SDS011;1338;48.176;11.792;2023-12-29T10:45:38;2.63;;;2.43;;
2656;SDS011;1338;48.176;11.792;2023-12-29T10:48:06;2.60;;;2.40;;
2656;SDS011;1338;48.176;11.792;2023-12-29T10:50:43;3.07;;;2.77;;
2656;SDS011;1338;48.176;11.792;2023-12-29T10:53:12;5.00;;;2.50;;
2656;SDS011;1338;48.176;11.792;2023-12-29T10:55:40;2.57;;;2.37;;
2656;SDS011;1338;48.176;11.792;2023-12-29T10:58:09;2.23;;;2.13;;
2656;SDS011;1338;48.176;11.792;2023-12-29T11:00:37;2.53;;;2.33;;
2656;SDS011;1338;48.176;11.792;2023-12-29T11:03:05;2.53;;;2.33;;
2656;SDS011;1338;48.176;11.792;2023-12-29T11:05:34;2.40;;;2.20;;
2656;SDS011;1338;48.176;11.792;2023-12-29T11:08:04;2.63;;;2.43;;
2656;SDS011;1338;48.176;11.792;2023-12-29T11:10:43;2.30;;;2.10;;
2656;SDS011;1338;48.176;11.792;2023-12-29T11:13:12;2.40;;;2.20;;
2656;SDS011;1338;48.176;11.792;2023-12-29T11:15:45;4.00;;;2.03;;
2656;SDS011;1338;48.176;11.792;2023-12-29T11:18:15;2.37;;;2.17;;
2656;SDS011;1338;48.176;11.792;2023-12-29T11:20:45;2.00;;;1.90;;
2656;SDS011;1338;48.176;11.792;2023-12-29T11:23:15;2.03;;;1.73;;
2656;SDS011;1338;48.176;11.792;2023-12-29T11:25:44;1.87;;;1.77;;
2656;SDS011;1338;48.176;11.792;2023-12-29T11:28:13;2.53;;;1.90;;
2656;SDS011;1338;48.176;11.792;2023-12-29T11:30:42;2.33;;;1.87;;
2656;SDS011;1338;48.176;11.792;2023-12-29T11:33:12;1.70;;;1.60;;
2656;SDS011;1338;48.176;11.792;2023-12-29T11:35:48;1.73;;;1.63;;
2656;SDS011;1338;48.176;11.792;2023-12-29T11:38:33;2.27;;;2.07;;
2656;SDS011;1338;48.176;11.792;2023-12-29T11:41:17;2.03;;;1.93;;
2656;SDS011;1338;48.176;11.792;2023-12-29T11:43:55;2.23;;;2.13;;
2656;SDS011;1338;48.176;11.792;2023-12-29T11:46:34;2.00;;;1.90;;
2656;SDS011;1338;48.176;11.792;2023-12-29T11:49:02;2.40;;;2.20;;
2656;SDS011;1338;48.176;11.792;2023-12-29T11:51:32;2.30;;;2.10;;
2656;SDS011;1338;48.176;11.792;2023-12-29T11:54:03;2.23;;;2.03;;
2656;SDS011;1338;48.176;11.792;2023-12-29T11:56:34;2.30;;;2.20;;
2656;SDS011;1338;48.176;11.792;2023-12-29T11:59:16;2.20;;;2.00;;
2656;SDS011;1338;48.176;11.792;2023-12-29T12:01:46;2.13;;;2.03;;
2656;SDS011;1338;48.176;11.792;2023-12-29T12:07:16;2.70;;;2.33;;
2656;SDS011;1338;48.176;11.792;2023-12-29T12:09:47;2.80;;;2.50;;
2656;SDS011;1338;48.176;11.792;2023-12-29T12:15:08;2.50;;;2.30;;
2656;SDS011;1338;48.176;11.792;2023-12-29T12:17:59;2.50;;;2.30;;
2656;SDS011;1338;48.176;11.792;2023-12-29T12:20:31;2.93;;;2.40;;
2656;SDS011;1338;48.176;11.792;2023-12-29T12:23:00;2.80;;;2.53;;
2656;SDS011;1338;48.176;11.792;2023-12-29T12:25:31;2.30;;;2.17;;
2656;SDS011;1338;48.176;11.792;2023-12-29T12:28:06;3.00;;;2.67;;
2656;SDS011;1338;48.176;11.792;2023-12-29T12:30:37;2.50;;;2.30;;
2656;SDS011;1338;48.176;11.792;2023-12-29T12:33:09;2.53;;;2.33;;
2656;SDS011;1338;48.176;11.792;2023-12-29T12:35:42;2.50;;;2.30;;
2656;SDS011;1338;48.176;11.792;2023-12-29T12:38:12;2.93;;;2.73;;
2656;SDS011;1338;48.176;11.792;2023-12-29T12:40:48;2.40;;;2.23;;
2656;SDS011;1338;48.176;11.792;2023-12-29T12:43:17;2.43;;;2.27;;
2656;SDS011;1338;48.176;11.792;2023-12-29T12:45:46;2.80;;;2.60;;
2656;SDS011;1338;48.176;11.792;2023-12-29T12:48:19;2.60;;;2.40;;
2656;SDS011;1338;48.176;11.792;2023-12-29T12:50:49;2.47;;;2.27;;
2656;SDS011;1338;48.176;11.792;2023-12-29T12:53:21;2.13;;;2.03;;
2656;SDS011;1338;48.176;11.792;2023-12-29T12:55:51;2.60;;;2.40;;
2656;SDS011;1338;48.176;11.792;2023-12-29T12:58:20;2.13;;;2.00;;
2656;SDS011;1338;48.176;11.792;2023-12-29T13:00:49;2.17;;;2.07;;
2656;SDS011;1338;48.176;11.792;2023-12-29T13:03:22;2.30;;;2.10;;
2656;SDS011;1338;48.176;11.792;2023-12-29T13:05:50;2.30;;;2.10;;
2656;SDS011;1338;48.176;11.792;2023-12-29T13:08:20;2.30;;;2.10;;
2656;SDS011;1338;48.176;11.792;2023-12-29T13:11:01;2.43;;;2.33;;
2656;SDS011;1338;48.176;11.792;2023-12-29T13:13:37;3.20;;;2.33;;
2656;SDS011;1338;48.176;11.792;2023-12-29T13:16:07;2.30;;;2.00;;
2656;SDS011;1338;48.176;11.792;2023-12-29T13:18:35;2.40;;;2.20;;
2656;SDS011;1338;48.176;11.792;2023-12-29T13:21:03;2.33;;;2.10;;
2656;SDS011;1338;48.176;11.792;2023-12-29T13:23:32;2.47;;;2.27;;
2656;SDS011;1338;48.176;11.792;2023-12-29T13:26:04;2.80;;;2.20;;
2656;SDS011;1338;48.176;11.792;2023-12-29T13:28:35;2.10;;;2.00;;
2656;SDS011;1338;48.176;11.792;2023-12-29T13:31:05;2.27;;;2.07;;
2656;SDS011;1338;48.176;11.792;2023-12-29T13:33:40;2.30;;;2.10;;
2656;SDS011;1338;48.176;11.792;2023-12-29T13:36:17;2.30;;;2.10;;
2656;SDS011;1338;48.176;11.792;2023-12-29T13:38:50;2.97;;;2.03;;
2656;SDS011;1338;48.176;11.792;2023-12-29T13:41:24;2.17;;;2.07;;
2656;SDS011;1338;48.176;11.792;2023-12-29T13:43:56;2.60;;;2.40;;
2656;SDS011;1338;48.176;11.792;2023-12-29T13:46:26;1.90;;;1.80;;
2656;SDS011;1338;48.176;11.792;2023-12-29T13:48:55;2.07;;;1.97;;
2656;SDS011;1338;48.176;11.792;2023-12-29T13:51:24;2.10;;;2.00;;
2656;SDS011;1338;48.176;11.792;2023-12-29T13:54:02;2.03;;;1.93;;
2656;SDS011;1338;48.176;11.792;2023-12-29T13:56:32;2.20;;;2.00;;
2656;SDS011;1338;48.176;11.792;2023-12-29T13:59:01;1.70;;;1.60;;
2656;SDS011;1338;48.176;11.792;2023-12-29T14:01:36;2.00;;;1.87;;
2656;SDS011;1338;48.176;11.792;2023-12-29T14:04:07;2.17;;;2.03;;
2656;SDS011;1338;48.176;11.792;2023-12-29T14:06:39;2.27;;;2.07;;
2656;SDS011;1338;48.176;11.792;2023-12-29T14:09:13;2.00;;;1.90;;
2656;SDS011;1338;48.176;11.792;2023-12-29T14:11:45;2.00;;;1.90;;
2656;SDS011;1338;48.176;11.792;2023-12-29T14:14:13;2.37;;;2.17;;
2656;SDS011;1338;48.176;11.792;2023-12-29T14:16:42;2.00;;;1.90;;
2656;SDS011;1338;48.176;11.792;2023-12-29T14:19:10;1.97;;;1.87;;
2656;SDS011;1338;48.176;11.792;2023-12-29T14:21:39;2.10;;;2.00;;
2656;SDS011;1338;48.176;11.792;2023-12-29T14:24:08;2.00;;;1.90;;
2656;SDS011;1338;48.176;11.792;2023-12-29T14:26:37;2.70;;;1.90;;
2656;SDS011;1338;48.176;11.792;2023-12-29T14:29:09;1.93;;;1.83;;
2656;SDS011;1338;48.176;11.792;2023-12-29T14:31:39;2.00;;;1.90;;
2656;SDS011;1338;48.176;11.792;2023-12-29T14:34:10;2.10;;;1.90;;
2656;SDS011;1338;48.176;11.792;2023-12-29T14:36:40;1.83;;;1.70;;
2656;SDS011;1338;48.176;11.792;2023-12-29T14:39:09;2.30;;;2.20;;
2656;SDS011;1338;48.176;11.792;2023-12-29T14:41:38;2.00;;;1.90;;
2656;SDS011;1338;48.176;11.792;2023-12-29T14:44:06;2.03;;;1.83;;
2656;SDS011;1338;48.176;11.792;2023-12-29T14:46:36;2.90;;;2.03;;
2656;SDS011;1338;48.176;11.792;2023-12-29T14:49:05;1.80;;;1.70;;
2656;SDS011;1338;48.176;11.792;2023-12-29T14:51:34;2.17;;;2.00;;
2656;SDS011;1338;48.176;11.792;2023-12-29T14:54:05;2.07;;;1.87;;
2656;SDS011;1338;48.176;11.792;2023-12-29T14:56:34;2.10;;;2.00;;
2656;SDS011;1338;48.176;11.792;2023-12-29T14:59:02;2.00;;;1.90;;
2656;SDS011;1338;48.176;11.792;2023-12-29T15:01:32;2.20;;;2.00;;
2656;SDS011;1338;48.176;11.792;2023-12-29T15:04:02;2.27;;;2.07;;
2656;SDS011;1338;48.176;11.792;2023-12-29T15:06:31;2.37;;;2.17;;
2656;SDS011;1338;48.176;11.792;2023-12-29T15:08:59;2.33;;;2.13;;
2656;SDS011;1338;48.176;11.792;2023-12-29T15:11:27;2.20;;;2.00;;
2656;SDS011;1338;48.176;11.792;2023-12-29T15:13:55;2.30;;;2.10;;
2656;SDS011;1338;48.176;11.792;2023-12-29T15:16:23;2.50;;;2.30;;
2656;SDS011;1338;48.176;11.792;2023-12-29T15:18:52;2.23;;;2.07;;
2656;SDS011;1338;48.176;11.792;2023-12-29T15:21:22;2.30;;;2.10;;
2656;SDS011;1338;48.176;11.792;2023-12-29T15:23:50;2.70;;;2.50;;